Time;durP1;ratioP1;P1;durP2;ratioP2;P2;SDS_P1;SDS_P2;PMS_P1;PMS_P2;Temp;Humidity;BMP_temperature;BMP_pressure;BME280_temperature;BME280_humidity;BME280_pressure;Samples;Min_cycle;Max_cycle;Signal;HPM_P1;HPM_P2
2023/07/04 00:00:36;;;;;;;11.13;3.55;;;;;;;14.40;100.00;100950.59;5215152;28;20037;-65
2023/07/04 00:03:07;;;;;;;12.82;4.03;;;;;;;14.38;100.00;100948.06;5211114;28;20029;-66
2023/07/04 00:05:46;;;;;;;13.32;3.78;;;;;;;14.43;100.00;100947.63;5212081;28;20029;-66
2023/07/04 00:08:18;;;;;;;13.85;3.20;;;;;;;14.37;100.00;100940.16;5213460;28;20139;-66
2023/07/04 00:10:52;;;;;;;16.98;4.00;;;;;;;14.36;100.00;100950.00;5210122;28;20489;-66
2023/07/04 00:13:25;;;;;;;12.30;3.85;;;;;;;14.34;100.00;100949.31;5212945;28;20033;-66
2023/07/04 00:15:57;;;;;;;18.38;4.15;;;;;;;14.37;100.00;100942.81;5210965;28;20029;-66
2023/07/04 00:18:29;;;;;;;11.52;3.53;;;;;;;14.34;100.00;100946.63;5225936;28;20488;-66
2023/07/04 00:21:06;;;;;;;13.15;4.25;;;;;;;14.34;100.00;100938.56;5222237;28;20099;-66
2023/07/04 00:23:38;;;;;;;14.75;4.10;;;;;;;14.37;100.00;100942.81;5221607;28;20097;-66
2023/07/04 00:26:10;;;;;;;10.45;3.70;;;;;;;14.31;100.00;100934.34;5227388;28;20376;-65
2023/07/04 00:28:42;;;;;;;12.82;4.25;;;;;;;14.39;100.00;100947.06;5227317;28;20022;-66
2023/07/04 00:31:17;;;;;;;15.00;3.90;;;;;;;14.30;100.00;100943.41;5227040;28;20041;-66
2023/07/04 00:33:48;;;;;;;;;;;;;;;14.44;100.00;100952.00;5222837;28;20033;-66
2023/07/04 00:36:20;;;;;;;15.18;4.05;;;;;;;14.26;100.00;100947.31;5232541;28;19943;-66
2023/07/04 00:38:56;;;;;;;10.55;3.97;;;;;;;14.27;100.00;100946.34;5233873;28;20493;-66
2023/07/04 00:41:29;;;;;;;13.88;3.92;;;;;;;14.27;100.00;100946.34;5232574;28;20118;-66
2023/07/04 00:44:19;;;;;;;14.95;4.00;;;;;;;14.21;100.00;100949.59;5228897;28;20032;-66
2023/07/04 00:47:06;;;;;;;16.00;4.38;;;;;;;14.21;100.00;100946.03;5217261;28;20047;-66
2023/07/04 00:49:42;;;;;;;16.65;4.18;;;;;;;14.28;100.00;100947.19;5221884;28;20142;-66
2023/07/04 00:52:24;;;;;;;14.18;4.03;;;;;;;14.21;100.00;100943.34;5223454;28;20029;-66
2023/07/04 00:54:58;;;;;;;17.33;4.65;;;;;;;14.19;100.00;100940.84;5228189;28;20028;-66
2023/07/04 00:57:31;;;;;;;;;;;;;;;14.32;100.00;100938.72;5226724;28;20021;-66
2023/07/04 01:00:18;;;;;;;18.50;4.68;;;;;;;14.26;100.00;100947.31;5228049;28;19916;-66
2023/07/04 01:02:52;;;;;;;18.35;4.38;;;;;;;14.29;100.00;100948.91;5222344;28;20037;-66
2023/07/04 01:05:32;;;;;;;17.25;4.03;;;;;;;14.28;100.00;100949.88;5226237;28;20080;-66
2023/07/04 01:08:12;;;;;;;12.48;4.88;;;;;;;14.29;100.00;100956.94;5226987;28;20103;-66
2023/07/04 01:10:46;;;;;;;16.58;4.28;;;;;;;14.31;100.00;100950.44;5213922;28;20025;-66
2023/07/04 01:13:35;;;;;;;17.55;4.68;;;;;;;14.31;100.00;100950.44;5225401;28;20046;-66
2023/07/04 01:16:11;;;;;;;10.07;3.47;;;;;;;14.29;100.00;100947.03;5220808;28;20040;-66
2023/07/04 01:18:46;;;;;;;17.30;4.18;;;;;;;14.31;100.00;100945.06;5214762;28;20029;-66
2023/07/04 01:21:20;;;;;;;13.63;4.20;;;;;;;14.27;100.00;100951.72;5221627;28;20025;-66
2023/07/04 01:23:55;;;;;;;;;;;;;;;14.44;100.00;100950.19;5228919;28;20036;-66
2023/07/04 01:26:31;;;;;;;15.05;4.07;;;;;;;14.26;100.00;100952.69;5229790;28;20045;-66
2023/07/04 01:29:06;;;;;;;18.15;4.03;;;;;;;14.34;100.00;100959.19;5229261;28;20082;-66
2023/07/04 01:31:38;;;;;;;20.27;4.03;;;;;;;14.27;100.00;100962.44;5231105;28;20037;-66
2023/07/04 01:34:10;;;;;;;15.63;4.43;;;;;;;14.27;100.00;100958.91;5233666;28;20032;-66
2023/07/04 01:36:42;;;;;;;18.02;5.45;;;;;;;14.29;100.00;100956.94;5231134;28;20037;-66
2023/07/04 01:39:16;;;;;;;18.48;4.50;;;;;;;14.22;100.00;100959.31;5232341;28;20038;-66
2023/07/04 01:41:49;;;;;;;16.60;4.85;;;;;;;14.20;100.00;100958.59;5229560;28;20025;-64
2023/07/04 01:44:24;;;;;;;18.25;4.90;;;;;;;14.22;100.00;100956.63;5232029;28;20024;-65
2023/07/04 01:46:55;;;;;;;18.40;4.53;;;;;;;14.24;100.00;100964.56;5228617;28;20055;-66
2023/07/04 01:49:27;;;;;;;15.85;4.65;;;;;;;14.25;100.00;100958.22;5225853;28;20381;-66
2023/07/04 01:51:58;;;;;;;15.63;4.57;;;;;;;14.25;100.00;100953.69;5225663;28;20226;-66
2023/07/04 01:54:30;;;;;;;17.15;4.35;;;;;;;14.28;100.00;100956.06;5213871;28;20057;-66
2023/07/04 01:57:02;;;;;;;18.17;4.72;;;;;;;14.30;100.00;100956.81;5213251;28;20575;-67
2023/07/04 01:59:34;;;;;;;15.23;4.28;;;;;;;14.34;100.00;100959.19;5206625;28;20052;-66
2023/07/04 02:02:06;;;;;;;16.67;4.90;;;;;;;14.34;100.00;100968.09;5213396;28;20050;-66
2023/07/04 02:04:37;;;;;;;18.75;4.80;;;;;;;14.38;100.00;100964.16;5219924;28;20511;-66
2023/07/04 02:07:11;;;;;;;13.43;5.15;;;;;;;14.40;100.00;100954.13;5209680;28;20040;-66
2023/07/04 02:09:43;;;;;;;17.73;4.75;;;;;;;14.41;100.00;100949.59;5222250;28;20060;-66
2023/07/04 02:12:16;;;;;;;20.05;4.28;;;;;;;14.44;100.00;100949.31;5209275;28;20124;-66
2023/07/04 02:14:48;;;;;;;21.17;4.95;;;;;;;14.44;100.00;100947.50;5218873;28;20037;-66
2023/07/04 02:17:20;;;;;;;22.27;5.18;;;;;;;14.43;100.00;100947.63;5213155;28;20036;-66
2023/07/04 02:19:52;;;;;;;18.98;4.75;;;;;;;14.47;100.00;100938.31;5209479;28;20033;-66
2023/07/04 02:22:23;;;;;;;18.52;4.80;;;;;;;14.49;100.00;100941.69;5206308;28;20072;-66
2023/07/04 02:24:54;;;;;;;19.25;4.88;;;;;;;14.66;100.00;100943.72;5213336;28;20033;-66
2023/07/04 02:27:26;;;;;;;14.57;4.32;;;;;;;14.57;100.00;100944.53;5220332;28;20021;-67
2023/07/04 02:29:57;;;;;;;14.70;4.85;;;;;;;14.61;100.00;100947.81;5213627;28;20029;-66
2023/07/04 02:32:28;;;;;;;17.40;4.70;;;;;;;14.60;100.00;100956.88;5218343;28;20052;-67
2023/07/04 02:35:00;;;;;;;15.70;4.60;;;;;;;14.65;100.00;100957.28;5213633;28;20415;-66
2023/07/04 02:37:31;;;;;;;18.08;4.97;;;;;;;14.64;100.00;100958.28;5210871;28;20037;-66
2023/07/04 02:40:03;;;;;;;15.25;4.43;;;;;;;14.66;100.00;100964.34;5219517;28;20088;-66
2023/07/04 02:42:34;;;;;;;17.23;4.97;;;;;;;14.68;100.00;100968.59;5211042;28;20064;-66
2023/07/04 02:45:08;;;;;;;21.92;5.35;;;;;;;14.63;100.00;100968.19;5221739;28;20391;-66
2023/07/04 02:47:39;;;;;;;20.00;6.07;;;;;;;14.60;100.00;100959.56;5214743;28;20492;-67
2023/07/04 02:50:11;;;;;;;24.85;7.55;;;;;;;14.55;100.00;100970.66;5216781;28;20033;-67
2023/07/04 02:52:42;;;;;;;18.40;5.55;;;;;;;14.43;100.00;100961.88;5215356;28;20079;-67
2023/07/04 02:55:13;;;;;;;16.30;5.57;;;;;;;14.29;100.00;100965.84;5221495;28;20064;-67
2023/07/04 02:57:45;;;;;;;16.88;4.75;;;;;;;14.14;100.00;100966.38;5213635;28;20116;-67
2023/07/04 03:00:16;;;;;;;14.18;5.00;;;;;;;14.04;100.00;100964.50;5214640;28;20407;-66
2023/07/04 03:02:48;;;;;;;16.83;5.25;;;;;;;13.87;100.00;100959.81;5213406;28;20108;-66
2023/07/04 03:05:19;;;;;;;19.38;5.82;;;;;;;13.79;100.00;100973.91;5218741;28;20428;-66
2023/07/04 03:07:51;;;;;;;19.55;6.65;;;;;;;13.71;100.00;100973.69;5227588;28;20045;-67
2023/07/04 03:10:25;;;;;;;17.90;6.43;;;;;;;13.73;100.00;100975.28;5227812;28;20130;-67
2023/07/04 03:12:57;;;;;;;18.00;6.70;;;;;;;13.66;100.00;100970.59;5218129;28;20387;-67
2023/07/04 03:15:28;;;;;;;21.83;7.78;;;;;;;13.58;100.00;100973.09;5221859;28;20041;-67
2023/07/04 03:18:01;;;;;;;19.65;7.32;;;;;;;13.56;100.00;100986.63;5216707;28;20557;-66
2023/07/04 03:20:33;;;;;;;26.80;8.17;;;;;;;13.69;100.00;100975.66;5216390;28;20032;-67
2023/07/04 03:23:04;;;;;;;23.58;8.85;;;;;;;13.59;100.00;100980.97;5223317;28;20293;-67
2023/07/04 03:25:35;;;;;;;18.83;8.48;;;;;;;13.66;100.00;100981.31;5223086;28;20037;-67
2023/07/04 03:28:07;;;;;;;21.05;7.38;;;;;;;13.62;100.00;100977.22;5224553;28;20117;-67
2023/07/04 03:30:38;;;;;;;19.27;7.10;;;;;;;13.62;100.00;100982.56;5227778;28;21005;-67
2023/07/04 03:33:10;;;;;;;21.23;7.05;;;;;;;13.58;100.00;100976.63;5226798;28;20053;-66
2023/07/04 03:35:41;;;;;;;18.20;6.97;;;;;;;13.61;100.00;100991.59;5234407;28;20657;-66
2023/07/04 03:38:12;;;;;;;28.42;7.57;;;;;;;13.56;100.00;100996.47;5224568;28;20559;-66
2023/07/04 03:40:44;;;;;;;20.80;6.80;;;;;;;13.50;100.00;100992.50;5235048;28;20080;-67
2023/07/04 03:43:17;;;;;;;24.15;7.70;;;;;;;13.50;100.00;100990.69;5233408;28;20025;-67
2023/07/04 03:45:48;;;;;;;24.52;7.72;;;;;;;13.49;100.00;100986.31;5235052;28;20029;-67
2023/07/04 03:48:22;;;;;;;24.05;8.02;;;;;;;13.55;100.00;100984.09;5227708;28;20540;-66
2023/07/04 03:50:53;;;;;;;17.65;7.78;;;;;;;13.47;100.00;100999.00;5233733;28;20075;-66
2023/07/04 03:53:25;;;;;;;23.65;7.68;;;;;;;13.49;100.00;100990.81;5226705;28;20487;-66
2023/07/04 03:55:56;;;;;;;21.73;7.43;;;;;;;13.45;100.00;100990.22;5223642;28;20433;-66
2023/07/04 03:58:28;;;;;;;24.30;8.23;;;;;;;13.40;100.00;100992.44;5220787;28;20467;-66
2023/07/04 04:01:01;;;;;;;17.98;7.53;;;;;;;13.49;100.00;100997.03;5223729;28;20037;-66
2023/07/04 04:03:38;;;;;;;29.52;7.72;;;;;;;13.36;100.00;100995.53;5233321;28;20040;-66
2023/07/04 04:06:09;;;;;;;24.13;7.57;;;;;;;13.33;100.00;100994.81;5223943;28;20438;-66
2023/07/04 04:08:41;;;;;;;23.90;7.50;;;;;;;13.31;100.00;101012.88;5222339;28;20124;-66
2023/07/04 04:11:12;;;;;;;28.83;7.70;;;;;;;13.31;100.00;101007.50;5236732;28;20088;-67
2023/07/04 04:13:45;;;;;;;28.40;8.52;;;;;;;13.43;100.00;101000.25;5223986;28;20036;-66
2023/07/04 04:16:16;;;;;;;27.02;7.35;;;;;;;13.42;100.00;101005.72;5236537;28;20020;-66
2023/07/04 04:18:51;;;;;;;22.02;7.28;;;;;;;13.47;100.00;101004.34;5232260;28;20835;-66
2023/07/04 04:21:23;;;;;;;23.80;8.50;;;;;;;13.48;100.00;101011.41;5235085;28;20126;-66
2023/07/04 04:23:54;;;;;;;23.17;7.30;;;;;;;13.48;100.00;101010.56;5236368;28;20042;-66
2023/07/04 04:26:26;;;;;;;27.48;8.20;;;;;;;13.50;100.00;101012.13;5238271;28;20078;-66
2023/07/04 04:28:58;;;;;;;22.90;7.47;;;;;;;13.51;100.00;101012.97;5228291;28;20030;-66
2023/07/04 04:31:30;;;;;;;28.48;8.45;;;;;;;13.49;100.00;101017.63;5237606;28;20030;-66
2023/07/04 04:34:02;;;;;;;24.02;7.72;;;;;;;13.60;100.00;101014.88;5228648;28;20028;-66
2023/07/04 04:36:33;;;;;;;25.50;7.78;;;;;;;13.50;100.00;101022.84;5237380;28;20024;-66
2023/07/04 04:39:05;;;;;;;25.92;7.90;;;;;;;13.52;100.00;101034.28;5230989;28;21656;-66
2023/07/04 04:41:37;;;;;;;21.00;7.90;;;;;;;13.71;100.00;101025.50;5233489;28;20052;-66
2023/07/04 04:44:09;;;;;;;25.25;8.02;;;;;;;13.65;100.00;101038.59;5235287;28;20509;-66
2023/07/04 04:46:48;;;;;;;23.00;7.78;;;;;;;13.55;100.00;101026.97;5232899;28;20040;-67
2023/07/04 04:49:21;;;;;;;25.35;8.20;;;;;;;13.56;100.00;101037.56;5227855;28;20095;-66
2023/07/04 04:51:52;;;;;;;25.25;8.48;;;;;;;13.59;100.00;101028.41;5237558;28;20087;-66
2023/07/04 04:54:27;;;;;;;22.45;7.95;;;;;;;13.62;100.00;101033.50;5232783;28;20483;-66
2023/07/04 04:56:58;;;;;;;24.52;8.18;;;;;;;13.66;100.00;101029.56;5235684;28;21663;-66
2023/07/04 04:59:30;;;;;;;22.15;7.55;;;;;;;13.72;100.00;101026.34;5230400;28;20030;-66
2023/07/04 05:02:01;;;;;;;32.40;7.88;;;;;;;13.72;100.00;101035.25;5234761;28;20037;-66
2023/07/04 05:04:33;;;;;;;26.75;7.30;;;;;;;13.76;100.00;101033.16;5232852;28;20036;-66
2023/07/04 05:07:05;;;;;;;18.98;7.30;;;;;;;13.83;100.00;101042.38;5230166;28;20176;-66
2023/07/04 05:09:36;;;;;;;21.38;7.20;;;;;;;13.83;100.00;101042.38;5224489;28;20513;-66
2023/07/04 05:12:08;;;;;;;27.00;7.90;;;;;;;13.82;100.00;101043.34;5223117;28;20037;-66
2023/07/04 05:14:39;;;;;;;28.38;8.10;;;;;;;13.89;100.00;101044.50;5228611;28;20030;-66
2023/07/04 05:17:11;;;;;;;28.45;9.02;;;;;;;13.95;100.00;101048.47;5226239;28;20053;-66
2023/07/04 05:19:43;;;;;;;26.38;7.60;;;;;;;13.91;100.00;101039.84;5233125;28;20029;-64
2023/07/04 05:22:15;;;;;;;30.63;9.05;;;;;;;13.97;100.00;101043.00;5231389;28;20488;-67
2023/07/04 05:24:46;;;;;;;23.95;7.50;;;;;;;14.02;100.00;101046.97;5224598;28;20117;-66
2023/07/04 05:27:18;;;;;;;25.08;8.05;;;;;;;13.97;100.00;101048.34;5229569;28;20378;-66
2023/07/04 05:29:49;;;;;;;30.92;8.43;;;;;;;13.93;100.00;101051.28;5230799;28;20033;-67
2023/07/04 05:32:21;;;;;;;24.38;7.63;;;;;;;13.95;100.00;101051.16;5232892;28;20025;-66
2023/07/04 05:34:52;;;;;;;19.08;7.00;;;;;;;14.03;100.00;101053.19;5237631;28;20475;-66
2023/07/04 05:37:24;;;;;;;22.42;6.90;;;;;;;14.01;100.00;101056.00;5240689;28;20034;-66
2023/07/04 05:39:56;;;;;;;29.75;7.25;;;;;;;14.09;100.00;101048.13;5223487;28;20112;-67
2023/07/04 05:42:29;;;;;;;23.00;6.75;;;;;;;14.07;100.00;101054.59;5229849;28;20033;-67
2023/07/04 05:45:00;;;;;;;22.00;7.35;;;;;;;14.16;100.00;101052.97;5230775;28;20033;-66
2023/07/04 05:47:31;;;;;;;24.83;8.13;;;;;;;14.19;100.00;101056.22;5222927;28;20107;-67
2023/07/04 05:50:03;;;;;;;26.70;7.10;;;;;;;14.25;100.00;101055.66;5231925;28;20124;-66
2023/07/04 05:52:35;;;;;;;21.70;7.18;;;;;;;14.24;100.00;101053.13;5229603;28;20029;-66
2023/07/04 05:55:06;;;;;;;24.23;7.55;;;;;;;14.33;100.00;101052.31;5248751;28;20525;-67
2023/07/04 05:57:38;;;;;;;23.45;7.00;;;;;;;14.36;100.00;101053.84;5229499;28;20484;-68
2023/07/04 06:00:10;;;;;;;25.48;6.65;;;;;;;14.44;100.00;101054.88;5230299;28;20467;-67
2023/07/04 06:02:41;;;;;;;20.80;6.72;;;;;;;14.41;100.00;101049.78;5224762;28;20490;-67
2023/07/04 06:05:13;;;;;;;20.63;6.82;;;;;;;14.44;100.00;101057.56;5234902;28;20036;-67
2023/07/04 06:07:44;;;;;;;21.85;6.63;;;;;;;14.55;100.00;101051.22;5230382;28;20131;-66
2023/07/04 06:10:16;;;;;;;23.40;6.80;;;;;;;14.64;100.00;101057.63;5226149;28;20029;-67
2023/07/04 06:12:47;;;;;;;23.42;6.88;;;;;;;14.59;100.00;101054.50;5228566;28;20099;-66
2023/07/04 06:15:18;;;;;;;21.70;6.45;;;;;;;14.62;100.00;101055.09;5225955;28;20079;-67
2023/07/04 06:17:50;;;;;;;24.85;7.22;;;;;;;14.71;100.00;101069.53;5227818;28;20021;-67
2023/07/04 06:20:22;;;;;;;23.25;6.57;;;;;;;14.79;100.00;101067.00;5226576;28;20029;-66
2023/07/04 06:22:54;;;;;;;26.08;7.75;;;;;;;14.85;100.00;101065.59;5233923;28;20056;-67
2023/07/04 06:25:27;;;;;;;22.13;6.18;;;;;;;14.97;100.00;101067.13;5239873;28;20108;-67
2023/07/04 06:28:00;;;;;;;20.48;6.20;;;;;;;15.04;100.00;101065.59;5238749;28;20036;-67
2023/07/04 06:30:34;;;;;;;19.05;5.97;;;;;;;15.08;100.00;101067.00;5234754;28;20041;-67
2023/07/04 06:33:06;;;;;;;22.73;5.85;;;;;;;15.17;100.00;101064.44;5237296;28;20543;-66
2023/07/04 06:35:40;;;;;;;18.20;5.82;;;;;;;15.23;100.00;101063.91;5234685;28;20083;-67
2023/07/04 06:38:11;;;;;;;17.02;5.85;;;;;;;15.37;100.00;101066.13;5242307;28;20127;-67
2023/07/04 06:40:53;;;;;;;16.98;4.97;;;;;;;15.49;100.00;101062.31;5232675;28;20029;-67
2023/07/04 06:43:26;;;;;;;14.27;4.63;;;;;;;15.63;100.00;101071.75;5241131;28;20025;-67
2023/07/04 06:45:58;;;;;;;18.40;5.03;;;;;;;15.83;100.00;101067.19;5240531;28;20037;-67
2023/07/04 06:48:30;;;;;;;16.42;4.38;;;;;;;15.85;100.00;101059.81;5236119;28;20033;-67
2023/07/04 06:51:12;;;;;;;15.98;4.97;;;;;;;15.84;100.00;101066.22;5235031;28;20403;-67
2023/07/04 06:53:44;;;;;;;17.20;3.72;;;;;;;15.82;100.00;101064.66;5237612;28;20021;-67
2023/07/04 06:56:21;;;;;;;17.75;3.95;;;;;;;15.93;100.00;101069.03;5236106;28;20049;-68
2023/07/04 06:58:54;;;;;;;16.17;3.70;;;;;;;15.97;100.00;101068.56;5237412;28;20025;-68
2023/07/04 07:01:29;;;;;;;16.92;3.92;;;;;;;16.08;100.00;101067.53;5231224;28;20033;-67
2023/07/04 07:04:00;;;;;;;14.88;4.38;;;;;;;15.92;100.00;101072.72;5230021;28;20057;-67
2023/07/04 07:06:32;;;;;;;14.68;3.58;;;;;;;15.88;100.00;101078.38;5235942;28;20133;-67
2023/07/04 07:09:05;;;;;;;16.20;3.65;;;;;;;15.96;100.00;101077.66;5237352;28;20021;-65
2023/07/04 07:11:37;;;;;;;15.63;5.25;;;;;;;15.95;100.00;101075.09;5243744;28;20560;-65
2023/07/04 07:14:08;;;;;;;11.75;3.67;;;;;;;15.97;100.00;101071.25;5240090;28;20037;-65
2023/07/04 07:16:39;;;;;;;12.52;3.60;;;;;;;16.01;100.00;101069.13;5229869;28;20633;-67
2023/07/04 07:19:11;;;;;;;13.13;3.88;;;;;;;16.09;100.00;101071.94;5232156;28;20041;-67
2023/07/04 07:21:42;;;;;;;13.27;4.07;;;;;;;16.18;100.00;101059.44;5234307;28;20049;-67
2023/07/04 07:24:14;;;;;;;13.82;4.10;;;;;;;16.26;100.00;101065.78;5225342;28;20079;-67
2023/07/04 07:26:45;;;;;;;15.10;4.50;;;;;;;16.38;100.00;101076.34;5233286;28;20095;-67
2023/07/04 07:29:16;;;;;;;13.82;4.25;;;;;;;16.51;100.00;101071.47;5229540;28;20083;-67
2023/07/04 07:31:50;;;;;;;12.88;3.67;;;;;;;16.52;100.00;101086.59;5230226;28;20072;-67
2023/07/04 07:34:21;;;;;;;13.75;3.60;;;;;;;16.64;100.00;101093.50;5227962;28;20150;-67
2023/07/04 07:36:52;;;;;;;10.07;3.58;;;;;;;16.71;100.00;101096.44;5238058;28;20025;-67
2023/07/04 07:39:24;;;;;;;11.25;3.30;;;;;;;16.81;100.00;101086.41;5219923;28;20557;-67
2023/07/04 07:41:55;;;;;;;11.10;3.83;;;;;;;16.82;100.00;101077.38;5232261;28;20026;-67
2023/07/04 07:44:26;;;;;;;12.70;3.53;;;;;;;16.79;100.00;101080.34;5219941;28;20041;-67
2023/07/04 07:46:58;;;;;;;11.40;4.15;;;;;;;16.78;100.00;101077.78;5229967;28;20025;-67
2023/07/04 07:49:29;;;;;;;11.80;4.05;;;;;;;16.76;100.00;101079.78;5227229;28;20099;-67
2023/07/04 07:52:00;;;;;;;13.65;3.80;;;;;;;16.77;100.00;101087.72;5220660;28;20025;-67
2023/07/04 07:54:32;;;;;;;10.00;3.40;;;;;;;16.85;100.00;101087.00;5223331;28;20181;-68
2023/07/04 07:57:03;;;;;;;12.55;4.00;;;;;;;16.79;100.00;101080.34;5216563;28;20030;-68
2023/07/04 07:59:35;;;;;;;12.48;3.63;;;;;;;16.94;100.00;101093.34;5226694;28;20058;-68
2023/07/04 08:02:13;;;;;;;13.48;3.97;;;;;;;17.10;100.00;101092.63;5227962;28;20037;-67
2023/07/04 08:04:44;;;;;;;11.18;3.53;;;;;;;17.19;100.00;101091.72;5230539;28;20026;-67
2023/07/04 08:07:16;;;;;;;11.55;4.20;;;;;;;17.25;100.00;101091.94;5230999;28;20060;-67
2023/07/04 08:09:47;;;;;;;9.75;3.38;;;;;;;17.30;100.00;101087.94;5234219;28;20468;-67
2023/07/04 08:12:18;;;;;;;14.40;3.20;;;;;;;17.35;100.00;101096.41;5230831;28;20033;-67
2023/07/04 08:14:50;;;;;;;13.18;3.40;;;;;;;17.49;100.00;101097.69;5227946;28;20041;-68
2023/07/04 08:17:21;;;;;;;12.60;3.03;;;;;;;17.48;100.00;101102.25;5229478;28;20057;-68
2023/07/04 08:19:53;;;;;;;10.93;3.13;;;;;;;17.48;100.00;101096.00;5224922;28;20137;-68
2023/07/04 08:22:24;;;;;;;8.43;2.65;;;;;;;17.68;100.00;101094.81;5228254;28;20471;-68
2023/07/04 08:24:58;;;;;;;17.73;3.60;;;;;;;17.64;100.00;101088.03;5225753;28;20033;-68
2023/07/04 08:27:29;;;;;;;;;;;;;;;17.89;100.00;101096.31;5232762;28;20052;-68
2023/07/04 08:30:01;;;;;;;13.43;2.90;;;;;;;17.72;100.00;101098.03;5237342;28;20339;-68
2023/07/04 08:32:33;;;;;;;10.85;2.92;;;;;;;17.80;100.00;101093.53;5227289;28;20028;-68
2023/07/04 08:35:05;;;;;;;11.45;2.50;;;;;;;17.84;100.00;101094.13;5226802;28;20148;-68
2023/07/04 08:37:36;;;;;;;10.77;2.67;;;;;;;17.89;100.00;101090.91;5225004;28;20093;-68
2023/07/04 08:40:10;;;;;;;9.50;2.42;;;;;;;17.87;100.00;101082.13;5233638;28;20041;-68
2023/07/04 08:42:43;;;;;;;6.85;2.33;;;;;;;17.99;100.00;101073.63;5222527;28;20022;-69
2023/07/04 08:45:24;;;;;;;9.60;2.40;;;;;;;18.06;100.00;101075.66;5232860;28;20463;-69
2023/07/04 08:47:57;;;;;;;7.53;2.38;;;;;;;18.12;100.00;101075.88;5227197;28;20109;-68
2023/07/04 08:50:33;;;;;;;9.75;2.40;;;;;;;18.15;100.00;101086.34;5223905;28;20034;-69
2023/07/04 08:53:16;;;;;;;9.88;2.65;;;;;;;18.37;100.00;101086.78;5235750;28;20025;-68
2023/07/04 08:56:17;;;;;;;7.23;2.47;;;;;;;18.52;100.00;101087.84;5230541;28;20035;-68
2023/07/04 08:59:08;;;;;;;9.65;2.22;;;;;;;18.61;100.00;101092.28;5230295;28;20532;-69
2023/07/04 09:01:45;;;;;;;6.93;2.42;;;;;;;18.68;100.00;101083.50;5220797;28;20373;-69
2023/07/04 09:04:30;;;;;;;8.80;2.30;;;;;;;18.78;100.00;101086.94;5228041;28;20086;-69
2023/07/04 09:07:12;;;;;;;5.75;2.15;;;;;;;18.87;100.00;101096.78;5227463;28;20114;-68
2023/07/04 09:09:50;;;;;;;9.80;2.35;;;;;;;19.03;100.00;101092.44;5219341;28;20029;-68
2023/07/04 09:12:21;;;;;;;8.50;2.20;;;;;;;19.29;100.00;101112.06;5222870;28;20421;-69
2023/07/04 09:15:03;;;;;;;8.98;2.10;;;;;;;19.23;100.00;101107.31;5229544;28;20035;-68
2023/07/04 09:17:43;;;;;;;8.10;2.13;;;;;;;19.33;100.00;101108.00;5225409;28;20136;-69
2023/07/04 09:20:15;;;;;;;7.00;2.20;;;;;;;19.29;100.00;101120.19;5225457;28;20106;-68
2023/07/04 09:22:46;;;;;;;9.02;3.00;;;;;;;19.35;100.00;101124.06;5225608;28;20033;-68
2023/07/04 09:25:18;;;;;;;10.23;2.97;;;;;;;19.33;100.00;101118.81;5222127;28;20396;-68
2023/07/04 09:27:50;;;;;;;10.27;2.95;;;;;;;19.34;100.00;101120.50;5232753;28;20052;-69
2023/07/04 09:30:22;;;;;;;7.40;2.45;;;;;;;19.45;100.00;101119.34;5227720;28;20139;-68
2023/07/04 09:32:53;;;;;;;10.52;3.42;;;;;;;19.44;100.00;101122.19;5230274;28;20766;-68
2023/07/04 09:35:25;;;;;;;7.43;2.67;;;;;;;19.38;100.00;101119.16;5227170;28;20041;-68
2023/07/04 09:37:59;;;;;;;9.52;2.65;;;;;;;19.42;100.00;101130.47;5226871;28;20037;-68
2023/07/04 09:40:46;;;;;;;9.35;2.67;;;;;;;19.56;100.00;101129.00;5230562;28;20605;-69
2023/07/04 09:43:34;;;;;;;8.23;2.60;;;;;;;19.65;100.00;101130.66;5226477;28;20037;-69
2023/07/04 09:46:10;;;;;;;9.25;2.83;;;;;;;19.70;100.00;101124.75;5225331;28;20103;-69
2023/07/04 09:48:41;;;;;;;9.80;2.83;;;;;;;19.79;100.00;101131.88;5222605;28;20028;-69
2023/07/04 09:51:24;;;;;;;9.30;3.17;;;;;;;19.81;100.00;101132.56;5226628;28;20079;-69
2023/07/04 09:54:14;;;;;;;9.63;3.17;;;;;;;19.83;100.00;101127.81;5225422;28;20034;-69
2023/07/04 09:56:45;;;;;;;8.70;2.85;;;;;;;19.80;100.00;101136.25;5226270;28;20033;-69
2023/07/04 09:59:18;;;;;;;8.68;2.38;;;;;;;19.82;100.00;101136.09;5227841;28;20463;-69
2023/07/04 10:01:52;;;;;;;13.52;2.67;;;;;;;19.74;100.00;101135.09;5228480;28;20044;-69
2023/07/04 10:04:41;;;;;;;;;;;;;;;19.93;100.00;101133.03;5235743;28;20033;-69
2023/07/04 10:07:15;;;;;;;5.70;1.90;;;;;;;19.81;100.00;101128.97;5226949;28;19976;-68
2023/07/04 10:09:52;;;;;;;6.80;1.95;;;;;;;19.89;100.00;101132.53;5231061;28;20132;-68
2023/07/04 10:12:25;;;;;;;7.57;2.30;;;;;;;19.82;100.00;101125.28;5231287;28;20037;-69
2023/07/04 10:14:59;;;;;;;7.97;2.55;;;;;;;19.65;100.00;101136.06;5217982;28;21432;-68
2023/07/04 10:17:32;;;;;;;8.73;2.00;;;;;;;19.71;100.00;101129.13;5216857;28;21242;-69
2023/07/04 10:20:12;;;;;;;10.80;2.40;;;;;;;19.86;100.00;101121.19;5225651;28;20026;-69
2023/07/04 10:22:52;;;;;;;8.35;2.55;;;;;;;19.85;100.00;101125.78;5225875;28;20033;-68
2023/07/04 10:25:25;;;;;;;7.80;2.03;;;;;;;19.85;100.00;101124.91;5221334;28;20018;-68
2023/07/04 10:28:07;;;;;;;11.40;2.33;;;;;;;19.88;100.00;101119.16;5227670;28;20040;-69
2023/07/04 10:30:43;;;;;;;10.75;2.10;;;;;;;19.95;100.00;101125.59;5221455;28;20026;-68
2023/07/04 10:33:21;;;;;;;9.73;2.40;;;;;;;20.09;100.00;101114.03;5217270;28;20128;-69
2023/07/04 10:35:52;;;;;;;10.52;2.22;;;;;;;20.21;100.00;101122.63;5225209;28;20053;-68
2023/07/04 10:38:45;;;;;;;7.15;2.00;;;;;;;20.26;100.00;101130.25;5221852;28;20033;-69
2023/07/04 10:41:20;;;;;;;6.93;2.15;;;;;;;20.35;100.00;101130.03;5222713;28;20083;-69
2023/07/04 10:43:58;;;;;;;8.35;2.10;;;;;;;20.43;100.00;101120.22;5229775;28;20601;-69
2023/07/04 10:46:42;;;;;;;9.50;2.08;;;;;;;20.54;100.00;101128.78;5221973;28;20128;-68
2023/07/04 10:49:18;;;;;;;9.27;2.33;;;;;;;20.69;100.00;101128.06;5217768;28;20104;-69
2023/07/04 10:52:03;;;;;;;6.32;1.90;;;;;;;20.74;100.00;101121.09;5217820;28;20044;-69
2023/07/04 10:54:35;;;;;;;7.30;2.22;;;;;;;20.76;100.00;101129.06;5217255;28;20068;-69
2023/07/04 10:57:19;;;;;;;9.05;2.58;;;;;;;20.97;100.00;101125.72;5219462;28;20124;-69
2023/07/04 10:59:57;;;;;;;11.95;2.10;;;;;;;21.12;100.00;101129.34;5219326;28;20092;-69
2023/07/04 11:02:36;;;;;;;7.07;1.95;;;;;;;21.17;100.00;101126.13;5216211;28;20448;-70
2023/07/04 11:05:14;;;;;;;9.77;2.30;;;;;;;21.12;100.00;101123.91;5221813;28;20033;-69
2023/07/04 11:07:51;;;;;;;6.93;2.03;;;;;;;20.99;100.00;101123.66;5230033;28;20821;-69
2023/07/04 11:10:24;;;;;;;8.15;2.25;;;;;;;21.01;100.00;101131.63;5235423;28;20025;-69
2023/07/04 11:12:57;;;;;;;9.23;2.50;;;;;;;20.95;100.00;101125.88;5227007;28;20033;-68
2023/07/04 11:15:35;;;;;;;7.00;1.77;;;;;;;21.08;100.00;101138.03;5230307;28;20115;-69
2023/07/04 11:18:09;;;;;;;9.98;2.65;;;;;;;21.11;100.00;101134.94;5232500;28;20046;-69
2023/07/04 11:20:40;;;;;;;;;;;;;;;21.29;100.00;101123.81;5229756;28;20083;-69
2023/07/04 11:23:15;;;;;;;6.30;1.87;;;;;;;21.14;100.00;101132.72;5232639;28;19921;-69
2023/07/04 11:25:46;;;;;;;7.82;2.40;;;;;;;21.27;100.00;101125.88;5227885;28;20312;-69
2023/07/04 11:28:41;;;;;;;7.32;2.10;;;;;;;21.27;100.00;101125.88;5233532;28;20483;-70
2023/07/04 11:31:21;;;;;;;7.75;2.15;;;;;;;21.35;100.00;101137.50;5230297;28;20666;-70
2023/07/04 11:33:53;;;;;;;11.02;2.28;;;;;;;21.29;100.00;101124.66;5222457;28;20040;-69
2023/07/04 11:36:33;;;;;;;8.52;1.85;;;;;;;21.31;100.00;101121.75;5232300;28;20372;-69
2023/07/04 11:39:36;;;;;;;8.48;2.35;;;;;;;21.30;100.00;101114.63;5232711;28;20112;-69
2023/07/04 11:42:15;;;;;;;9.60;2.45;;;;;;;21.30;100.00;101117.34;5234640;28;20032;-69